Friday, October 19, 2018, 3:51 AM EDT
Back to Local

KFDK, Frederick, Frederick Municipal Airport

Location: Frederick, MD, United States Lat: 39.417
Local Time: 3:51 AM EDT ( 7:51 GMT) Lon: -77.374
Time Zone: US/Eastern Elev: 301 ft

Show me the last for .
Show Decoded

2018-10-19 03:25 METAR KFDK 190725Z AUTO 00000KT 10SM CLR 02/02 A3040 RMK AO2 =
2018-10-19 02:25 METAR KFDK 190625Z AUTO 00000KT 10SM CLR 03/03 A3041 RMK AO2 =
2018-10-19 02:05 METAR KFDK 190605Z AUTO 00000KT 10SM CLR 02/02 A3041 RMK AO2 =
2018-10-19 01:45 METAR KFDK 190545Z AUTO 00000KT 10SM CLR 03/03 A3041 RMK AO2 =
2018-10-19 01:25 METAR KFDK 190525Z AUTO 00000KT 10SM CLR 03/03 A3041 RMK AO2 =
2018-10-19 01:05 METAR KFDK 190505Z AUTO 00000KT 10SM CLR 03/02 A3041 RMK AO2 =
2018-10-19 00:45 METAR KFDK 190445Z AUTO 00000KT 10SM CLR 03/03 A3041 RMK AO2 =
2018-10-19 00:25 METAR KFDK 190425Z AUTO 00000KT 10SM CLR 04/03 A3042 RMK AO2 =
2018-10-19 00:05 METAR KFDK 190405Z AUTO 00000KT 10SM CLR 05/03 A3042 RMK AO2 =
2018-10-18 23:45 METAR KFDK 190345Z AUTO 00000KT 10SM CLR 03/03 A3042 RMK AO2 =
2018-10-18 23:25 METAR KFDK 190325Z AUTO 00000KT 10SM CLR 05/03 A3043 RMK AO2 =
2018-10-18 23:05 METAR KFDK 190305Z AUTO 00000KT 10SM CLR 05/04 A3042 RMK AO2 =
2018-10-18 22:45 METAR KFDK 190245Z AUTO 00000KT 10SM CLR 05/03 A3042 RMK AO2 =
2018-10-18 22:25 METAR KFDK 190225Z AUTO 00000KT 10SM CLR 04/04 A3043 RMK AO2 =
2018-10-18 22:05 METAR KFDK 190205Z AUTO 00000KT 10SM CLR 05/05 A3043 RMK AO2 =
2018-10-18 21:45 METAR KFDK 190145Z AUTO 00000KT 10SM CLR 05/05 A3043 RMK AO2 =
2018-10-18 21:25 METAR KFDK 190125Z AUTO 00000KT 10SM CLR 05/04 A3043 RMK AO2 =
2018-10-18 21:05 METAR KFDK 190105Z AUTO 00000KT 10SM CLR 05/04 A3043 RMK AO2 =
2018-10-18 20:47 METAR KFDK 190047Z 00000KT 10SM SKC 06/05 A3042 =
2018-10-18 19:47 METAR KFDK 182347Z 00000KT 10SM SKC 08/04 A3042 =
2018-10-18 18:47 METAR KFDK 182247Z 00000KT 10SM SKC 11/02 A3041 =
2018-10-18 17:47 METAR KFDK 182147Z 00000KT 10SM SKC 13/01 A3040 =
2018-10-18 16:47 METAR KFDK 182047Z 30007KT 10SM SKC 14/01 A3040 =
2018-10-18 15:50 METAR KFDK 181950Z 29010KT 10SM SKC 14/00 A3041 =
2018-10-18 14:47 METAR KFDK 181847Z 30010G15KT 10SM SKC 13/01 A3043 =
2018-10-18 13:50 METAR KFDK 181750Z 30004KT 10SM FEW050 13/01 A3044 =
2018-10-18 12:49 METAR KFDK 181649Z 30012G16KT 10SM FEW060 13/01 A3046 =
2018-10-18 11:47 METAR KFDK 181547Z 32008KT 10SM SCT060 12/00 A3047 =
2018-10-18 09:47 METAR KFDK 181347Z 31012G16KT 10SM BKN050 11/00 A3046 =
2018-10-18 08:47 METAR KFDK 181247Z 30006KT 10SM BKN060 09/M01 A3045 =
2018-10-18 07:49 METAR KFDK 181149Z 32006KT 10SM BKN060 07/M01 A3043 =
2018-10-18 06:50 METAR KFDK 181050Z AUTO 29005KT 10SM CLR 06/M01 A3040 RMK AO2 =
2018-10-18 06:45 METAR KFDK 181045Z AUTO 30004KT 10SM CLR 06/M01 A3040 RMK AO2 =
2018-10-18 06:25 METAR KFDK 181025Z AUTO 31005KT 10SM CLR 06/M01 A3040 RMK AO2 =
2018-10-18 05:45 METAR KFDK 180945Z AUTO 32007KT 10SM SCT070 08/M01 A3038 RMK AO2 =
2018-10-18 05:25 METAR KFDK 180925Z AUTO 34004KT 10SM BKN070 08/M01 A3038 RMK AO2 =
2018-10-18 05:05 METAR KFDK 180905Z AUTO 00000KT 10SM OVC070 08/00 A3038 RMK AO2 =
2018-10-18 04:45 METAR KFDK 180845Z AUTO 00000KT 10SM OVC070 09/00 A3037 RMK AO2 =
2018-10-18 04:25 METAR KFDK 180825Z AUTO 00000KT 10SM OVC070 09/00 A3036 RMK AO2 =
2018-10-18 04:05 METAR KFDK 180805Z AUTO 00000KT 10SM OVC070 09/00 A3035 RMK AO2 =

Support USWX by starting your Amazon purchase here.